AUA962D ESSA-LOWW
Flight info
| Callsign | AUA962D |
|---|---|
| Flight time | N/A |
| Altitude | 38000 |
| Route | BABA3K BABAP T316 NEPVA DCT GOTAL DCT PENOR DCT BEZMI DCT VAGSA DCT DESEN DCT MIKOV MIKOV8W |
| Aircraft | A320/M-SDE3FGHIRWY/LB1 |
Departure
| Time | 2026-05-01 15:12 |
|---|---|
| Airport | Stockholm-Arlanda Airport (ESSA) |
Arrival
| Time | N/A |
|---|---|
| Airport | Vienna International Airport (LOWW) |
| Time | Latitude | Longitude | Altitude | Speed | Heading |
|---|---|---|---|---|---|
| 2026-05-01 14:44 | 59.65320 | 17.93575 | 119 ft | 0 kts | 75° |
| 2026-05-01 14:50 | 59.65320 | 17.93576 | 119 ft | 0 kts | 75° |
| 2026-05-01 14:52 | 59.65320 | 17.93575 | 119 ft | 0 kts | 75° |
| 2026-05-01 14:57 | 59.65320 | 17.93576 | 119 ft | 0 kts | 75° |
| 2026-05-01 14:58 | 59.65317 | 17.93555 | 119 ft | 2 kts | 75° |
| 2026-05-01 14:58 | 59.65313 | 17.93527 | 119 ft | 2 kts | 75° |
| 2026-05-01 14:58 | 59.65310 | 17.93498 | 118 ft | 2 kts | 75° |
| 2026-05-01 14:58 | 59.65306 | 17.93469 | 118 ft | 1 kts | 86° |
| 2026-05-01 14:59 | 59.65311 | 17.93445 | 118 ft | 1 kts | 123° |
| 2026-05-01 14:59 | 59.65314 | 17.93417 | 117 ft | 2 kts | 88° |
| 2026-05-01 14:59 | 59.65311 | 17.93388 | 116 ft | 2 kts | 71° |
| 2026-05-01 14:59 | 59.65308 | 17.93360 | 116 ft | 2 kts | 77° |
| 2026-05-01 15:00 | 59.65318 | 17.93384 | 116 ft | 3 kts | 39° |
| 2026-05-01 15:00 | 59.65344 | 17.93397 | 116 ft | 3 kts | 355° |
| 2026-05-01 15:00 | 59.65353 | 17.93393 | 116 ft | 0 kts | 345° |
| 2026-05-01 15:03 | 59.65355 | 17.93392 | 116 ft | 1 kts | 345° |
| 2026-05-01 15:03 | 59.65380 | 17.93378 | 115 ft | 5 kts | 345° |
| 2026-05-01 15:03 | 59.65427 | 17.93354 | 114 ft | 8 kts | 345° |
| 2026-05-01 15:03 | 59.65493 | 17.93341 | 112 ft | 10 kts | 4° |
| 2026-05-01 15:04 | 59.65547 | 17.93414 | 115 ft | 9 kts | 70° |
| 2026-05-01 15:04 | 59.65564 | 17.93539 | 116 ft | 9 kts | 78° |
| 2026-05-01 15:04 | 59.65578 | 17.93656 | 118 ft | 8 kts | 75° |
| 2026-05-01 15:04 | 59.65593 | 17.93779 | 120 ft | 10 kts | 85° |
| 2026-05-01 15:05 | 59.65538 | 17.93883 | 121 ft | 12 kts | 165° |
| 2026-05-01 15:05 | 59.65478 | 17.93935 | 122 ft | 6 kts | 70° |
| 2026-05-01 15:05 | 59.65519 | 17.93881 | 121 ft | 10 kts | 347° |
| 2026-05-01 15:05 | 59.65599 | 17.93898 | 120 ft | 13 kts | 47° |
| 2026-05-01 15:06 | 59.65631 | 17.94072 | 124 ft | 13 kts | 75° |
| 2026-05-01 15:06 | 59.65655 | 17.94252 | 127 ft | 10 kts | 75° |
| 2026-05-01 15:06 | 59.65660 | 17.94293 | 127 ft | 1 kts | 78° |
| 2026-05-01 15:06 | 59.65663 | 17.94321 | 128 ft | 3 kts | 78° |
| 2026-05-01 15:07 | 59.65670 | 17.94378 | 129 ft | 5 kts | 76° |
| 2026-05-01 15:07 | 59.65681 | 17.94462 | 130 ft | 7 kts | 76° |
| 2026-05-01 15:07 | 59.65694 | 17.94561 | 132 ft | 7 kts | 76° |
| 2026-05-01 15:07 | 59.65698 | 17.94587 | 132 ft | 0 kts | 76° |
| 2026-05-01 15:08 | 59.65700 | 17.94608 | 132 ft | 3 kts | 76° |
| 2026-05-01 15:08 | 59.65708 | 17.94667 | 133 ft | 5 kts | 76° |
| 2026-05-01 15:09 | 59.65720 | 17.94762 | 135 ft | 8 kts | 76° |
| 2026-05-01 15:09 | 59.65737 | 17.94906 | 135 ft | 13 kts | 77° |
| 2026-05-01 15:09 | 59.65745 | 17.95090 | 136 ft | 13 kts | 111° |
| 2026-05-01 15:09 | 59.65669 | 17.95176 | 137 ft | 13 kts | 162° |
| 2026-05-01 15:10 | 59.65579 | 17.95227 | 139 ft | 13 kts | 166° |
| 2026-05-01 15:10 | 59.65367 | 17.95340 | 138 ft | 19 kts | 166° |
| 2026-05-01 15:10 | 59.65221 | 17.95414 | 129 ft | 24 kts | 163° |
| 2026-05-01 15:11 | 59.65071 | 17.95494 | 121 ft | 22 kts | 166° |
| 2026-05-01 15:11 | 59.64912 | 17.95821 | 116 ft | 14 kts | 137° |
| 2026-05-01 15:11 | 59.64816 | 17.95865 | 116 ft | 16 kts | 189° |
| 2026-05-01 15:12 | 59.64594 | 17.95780 | 117 ft | 65 kts | 192° |
| 2026-05-01 15:12 | 59.62877 | 17.95195 | 511 ft | 155 kts | 195° |
| 2026-05-01 15:12 | 59.61808 | 17.94843 | 1199 ft | 158 kts | 196° |
| 2026-05-01 15:13 | 59.59672 | 17.99179 | 2906 ft | 216 kts | 76° |
| 2026-05-01 15:14 | 59.60788 | 18.05110 | 3984 ft | 249 kts | 65° |
| 2026-05-01 15:14 | 59.61375 | 18.08274 | 4875 ft | 251 kts | 68° |
| 2026-05-01 15:14 | 59.62415 | 18.14738 | 6746 ft | 251 kts | 68° |
| 2026-05-01 15:15 | 59.63708 | 18.21323 | 8087 ft | 274 kts | 66° |
| 2026-05-01 15:15 | 59.63234 | 18.29009 | 9157 ft | 315 kts | 128° |
| 2026-05-01 15:16 | 59.59465 | 18.32401 | 10724 ft | 309 kts | 185° |
| 2026-05-01 15:16 | 59.55052 | 18.32449 | 12200 ft | 325 kts | 181° |
| 2026-05-01 15:17 | 59.50528 | 18.33500 | 13726 ft | 336 kts | 175° |
| 2026-05-01 15:18 | 59.43478 | 18.36112 | 15760 ft | 354 kts | 173° |
| 2026-05-01 15:18 | 59.41065 | 18.37090 | 16493 ft | 358 kts | 173° |
| 2026-05-01 15:19 | 59.33657 | 18.40119 | 18507 ft | 371 kts | 173° |
| 2026-05-01 15:19 | 59.28567 | 18.42200 | 19783 ft | 378 kts | 173° |
| 2026-05-01 15:19 | 59.26006 | 18.43246 | 20409 ft | 382 kts | 172° |
| 2026-05-01 15:20 | 59.20781 | 18.45376 | 21628 ft | 388 kts | 172° |
| 2026-05-01 15:20 | 59.18137 | 18.46450 | 22203 ft | 392 kts | 172° |
| 2026-05-01 15:20 | 59.15478 | 18.47535 | 22773 ft | 395 kts | 172° |
| 2026-05-01 15:21 | 59.12790 | 18.48626 | 23318 ft | 399 kts | 172° |
| 2026-05-01 15:21 | 59.10086 | 18.49720 | 23852 ft | 402 kts | 172° |
| 2026-05-01 15:21 | 59.07321 | 18.50839 | 24381 ft | 405 kts | 172° |
| 2026-05-01 15:21 | 59.04584 | 18.51946 | 24910 ft | 408 kts | 172° |
| 2026-05-01 15:22 | 58.99038 | 18.54178 | 25929 ft | 413 kts | 171° |
| 2026-05-01 15:22 | 58.96225 | 18.55304 | 26407 ft | 415 kts | 172° |
| 2026-05-01 15:22 | 58.93365 | 18.56091 | 26872 ft | 415 kts | 179° |
| 2026-05-01 15:23 | 58.90519 | 18.56269 | 27323 ft | 414 kts | 185° |
| 2026-05-01 15:23 | 58.87636 | 18.55927 | 27758 ft | 415 kts | 188° |
| 2026-05-01 15:23 | 58.84770 | 18.55466 | 28163 ft | 418 kts | 188° |
| 2026-05-01 15:23 | 58.81883 | 18.54990 | 28560 ft | 421 kts | 188° |
| 2026-05-01 15:24 | 58.78983 | 18.54517 | 28958 ft | 423 kts | 188° |
| 2026-05-01 15:24 | 58.76041 | 18.54051 | 29403 ft | 424 kts | 188° |
| 2026-05-01 15:24 | 58.73116 | 18.53596 | 29935 ft | 423 kts | 188° |
| 2026-05-01 15:24 | 58.70190 | 18.53142 | 30350 ft | 424 kts | 187° |
| 2026-05-01 15:25 | 58.67283 | 18.52693 | 30703 ft | 426 kts | 187° |
| 2026-05-01 15:25 | 58.64316 | 18.52240 | 31047 ft | 429 kts | 187° |
| 2026-05-01 15:25 | 58.61337 | 18.51786 | 31380 ft | 432 kts | 187° |
| 2026-05-01 15:25 | 58.58334 | 18.51328 | 31692 ft | 435 kts | 187° |
| 2026-05-01 15:26 | 58.55332 | 18.50871 | 32017 ft | 437 kts | 187° |
| 2026-05-01 15:26 | 58.52325 | 18.50414 | 32308 ft | 440 kts | 187° |
| 2026-05-01 15:26 | 58.49295 | 18.49954 | 32607 ft | 442 kts | 187° |
| 2026-05-01 15:26 | 58.46206 | 18.49487 | 32897 ft | 445 kts | 187° |
| 2026-05-01 15:27 | 58.43142 | 18.49026 | 33176 ft | 447 kts | 187° |
| 2026-05-01 15:27 | 58.40022 | 18.48557 | 33460 ft | 449 kts | 187° |
| 2026-05-01 15:27 | 58.36923 | 18.48093 | 33737 ft | 451 kts | 187° |
| 2026-05-01 15:28 | 58.30704 | 18.47159 | 34249 ft | 455 kts | 187° |
| 2026-05-01 15:28 | 58.27529 | 18.46608 | 34480 ft | 456 kts | 189° |
| 2026-05-01 15:28 | 58.24395 | 18.45739 | 34709 ft | 457 kts | 193° |
| 2026-05-01 15:29 | 58.18264 | 18.42961 | 35250 ft | 455 kts | 199° |
| 2026-05-01 15:29 | 58.15230 | 18.41319 | 35542 ft | 454 kts | 199° |
| 2026-05-01 15:29 | 58.09183 | 18.38084 | 36075 ft | 453 kts | 199° |
| 2026-05-01 15:30 | 58.03170 | 18.34887 | 36566 ft | 453 kts | 198° |
| 2026-05-01 15:31 | 57.91041 | 18.28474 | 37339 ft | 456 kts | 198° |
| 2026-05-01 15:31 | 57.84944 | 18.25268 | 37683 ft | 459 kts | 198° |
| 2026-05-01 15:32 | 57.78835 | 18.22065 | 38014 ft | 460 kts | 198° |
| 2026-05-01 15:32 | 57.72662 | 18.18845 | 38193 ft | 461 kts | 198° |
| 2026-05-01 15:34 | 57.54155 | 18.09254 | 38200 ft | 463 kts | 198° |